Monday, April 21, 2014
02:14 UTC
  |  Log In   |  Register Free
Airport Search:

Owosso Community Airport
(KRNP)

Owosso Community Airport Diagram
No Airport Diagram Available

FAA data valid effective April 3, 2014 until May 29, 2014 (unless otherwise noted).

 
 
 
 
 
 
 
 
 
 
 
 
 
 

Current Aviation Weather for Owosso Community Airport (KRNP)

The most recent METAR observation for KRNP was updated at: 0154 UTC
METAR Summary (Translated METAR)
KRNP
210154Z AUTO 00000KT 10SM CLR 12/01 A3010 RMK AO2 T01190006
KFNT
(17.4 nm SE from KRNP)
210153Z 19004KT 10SM CLR 16/M04 A3010 RMK AO2 SLP194 T01611044
TAF Summary (Translated TAF)
KFNT
(17.4 nm SE from KRNP)
201738Z 2018/2118 19008KT P6SM BKN250 FM210000 17005KT P6SM BKN150
KLAN
(23.5 nm SW from KRNP)
201740Z 2018/2118 19010KT P6SM BKN250 FM211600 23010KT P6SM OVC035
  Airport Weather Conditions for KRNP

 Current Weather at RNP
60° F
Fair
North winds at 0.0 mph
RNP NOAA Radar

Pressure: 30.09 in
Humidity: 31%
Wind: Calm
Dew Point: 29.1°F
Visibility: 10.00 mi


Airport Weather Forecast for KRNP

Translated METAR and TAF for KRNP
Translated METAR for KRNP (0214 UTC 21 April 2014)
found at http://aviationweather.gov/adds/metars/
 
METAR text: KRNP 210154Z AUTO 00000KT 10SM CLR 12/01 A3010 RMK AO2 T01190006
Conditions at: KRNP (OWOSSO , MI, US) observed 0154 UTC 21 April 2014
Temperature: 11.9°C (53°F)
Dewpoint: 0.6°C (33°F) [RH = 46%]
Pressure (altimeter): 30.10 inches Hg (1019.4 mb)
Winds: calm
Visibility: 10 or more miles (16+ km)
Ceiling: at least 12,000 feet AGL
Clouds: sky clear below 12,000 feet AGL
Weather: automated observation with no human augmentation;
there may or may not be significant weather present at this time
Translated TAF for KRNP

There is no translated TAF available for this airport

Find All Airport Services Find A Hotel Find A Rental Car Find A Golf Course Find A Restaurant $100 Hamburger



FBO's on the Field
FBO Company Facility Photos Services Transportation Aviation Fuel Prices: Prices include tax
Catering Weather Repair Courtesy Rental Type 100LL JetA JetA+ MOGAS 8087
 
Owosso Community Airport

This FBO has not yet been rated
FS:Avfuel
Last Updated: Apr-08
Login to update fuel prices
SS:
Contact Owosso Community AirportMore FBO Information
 
Add another FBO Facility Photos Catering Weather Repair Courtesy Rental Type 100LL JetA JetA+ MOGAS 8087
Services Transportation Aviation Fuel Prices: Prices include tax


GlobalAir.com Airport Resource Center model-print
model-print
model-print
model-print